createdAt,value
2018-09-19T00:01:22.377Z,66.60
2018-09-19T00:03:50.605Z,66.90
2018-09-19T00:06:18.826Z,67.20
2018-09-19T00:08:47.022Z,67.60
2018-09-19T00:11:15.300Z,67.90
2018-09-19T00:13:44.517Z,68.20
2018-09-19T00:16:12.726Z,68.20
2018-09-19T00:18:40.980Z,68.30
2018-09-19T00:21:09.203Z,68.40
2018-09-19T00:23:37.421Z,68.50
2018-09-19T00:26:05.641Z,68.60
2018-09-19T00:28:33.890Z,68.80
2018-09-19T00:31:02.119Z,68.80
2018-09-19T00:33:30.358Z,68.80
2018-09-19T00:35:58.578Z,69.00
2018-09-19T00:38:26.806Z,69.30
2018-09-19T00:40:55.041Z,69.50
2018-09-19T00:43:23.281Z,69.80
2018-09-19T00:45:51.513Z,70.20
2018-09-19T00:48:19.749Z,70.70
2018-09-19T00:50:47.946Z,70.80
2018-09-19T00:53:16.182Z,70.90
2018-09-19T00:55:44.387Z,71.20
2018-09-19T00:58:12.690Z,71.50
2018-09-19T01:00:40.924Z,71.80
2018-09-19T01:03:09.211Z,72.00
2018-09-19T01:05:37.415Z,72.00
2018-09-19T01:08:06.272Z,72.10
2018-09-19T01:10:34.536Z,72.00
2018-09-19T01:13:03.709Z,71.90
2018-09-19T01:15:31.931Z,71.90
2018-09-19T01:18:00.155Z,71.80
2018-09-19T01:20:28.397Z,71.80
2018-09-19T01:22:56.606Z,71.90
2018-09-19T01:25:24.849Z,72.00
2018-09-19T01:27:53.059Z,72.10
2018-09-19T01:30:21.283Z,72.40
2018-09-19T01:32:49.499Z,72.60
2018-09-19T01:35:17.739Z,72.70
2018-09-19T01:37:45.997Z,72.80
2018-09-19T01:40:14.234Z,72.90
2018-09-19T01:42:42.478Z,73.10
2018-09-19T01:45:10.686Z,73.40
2018-09-19T01:47:38.891Z,73.50
2018-09-19T01:50:07.322Z,73.80
2018-09-19T01:52:35.545Z,74.00
2018-09-19T01:55:03.771Z,74.20
2018-09-19T01:57:32.064Z,74.30
2018-09-19T02:00:00.282Z,74.70
2018-09-19T02:02:28.520Z,74.90
2018-09-19T02:04:56.698Z,75.20
2018-09-19T02:07:24.967Z,75.30
2018-09-19T02:09:53.175Z,75.40
2018-09-19T02:12:21.393Z,75.60
2018-09-19T02:14:49.614Z,75.80
2018-09-19T02:17:17.905Z,75.90
2018-09-19T02:19:46.091Z,76.00
2018-09-19T02:22:14.360Z,76.10
2018-09-19T02:24:42.659Z,76.20
2018-09-19T02:27:10.889Z,76.40
2018-09-19T02:29:39.132Z,76.60
2018-09-19T02:32:07.364Z,76.50
2018-09-19T02:34:35.592Z,76.60
2018-09-19T02:37:03.810Z,76.60
2018-09-19T02:39:32.033Z,76.80
2018-09-19T02:42:00.336Z,77.00
2018-09-19T02:44:28.570Z,77.00
2018-09-19T02:46:56.809Z,77.00
2018-09-19T02:49:25.116Z,77.00
2018-09-19T02:51:57.573Z,77.20
2018-09-19T02:54:26.505Z,77.40
2018-09-19T02:56:54.762Z,77.40
2018-09-19T02:59:22.992Z,77.30
2018-09-19T03:01:51.388Z,77.20
2018-09-19T03:04:19.630Z,77.30
2018-09-19T03:06:47.826Z,77.30
2018-09-19T03:09:16.036Z,77.60
2018-09-19T03:11:44.293Z,77.90
2018-09-19T03:14:12.520Z,78.10
2018-09-19T03:16:40.745Z,78.10
2018-09-19T03:19:08.980Z,78.10
2018-09-19T03:21:37.197Z,78.00
2018-09-19T03:24:05.413Z,77.90
2018-09-19T03:26:33.629Z,78.00
2018-09-19T03:29:01.918Z,78.00
2018-09-19T03:31:30.139Z,78.00
2018-09-19T03:33:58.348Z,78.10
2018-09-19T03:36:26.551Z,78.40
2018-09-19T03:38:54.787Z,78.60
2018-09-19T03:41:22.985Z,79.00
2018-09-19T03:43:51.198Z,79.10
2018-09-19T03:46:19.411Z,79.40
2018-09-19T03:48:47.938Z,79.40
2018-09-19T03:51:16.174Z,79.60
2018-09-19T03:53:44.380Z,79.80
2018-09-19T03:56:12.565Z,79.90
2018-09-19T03:58:40.811Z,80.00
2018-09-19T04:01:09.035Z,80.50
2018-09-19T04:03:37.262Z,80.40
2018-09-19T04:06:05.471Z,80.50
2018-09-19T04:08:33.694Z,80.70
2018-09-19T04:11:01.901Z,80.90
2018-09-19T04:13:30.860Z,81.10
2018-09-19T04:15:59.092Z,81.20
2018-09-19T04:18:27.327Z,81.20
2018-09-19T04:20:55.585Z,81.40
2018-09-19T04:23:23.890Z,81.40
2018-09-19T04:25:52.098Z,81.40
2018-09-19T04:28:20.318Z,81.40
2018-09-19T04:30:49.527Z,81.50
2018-09-19T04:33:17.741Z,81.70
2018-09-19T04:35:45.978Z,81.80
2018-09-19T04:38:14.226Z,82.10
2018-09-19T04:40:42.433Z,82.30
2018-09-19T04:43:10.664Z,82.60
2018-09-19T04:45:38.911Z,82.70
2018-09-19T04:48:07.111Z,82.80
2018-09-19T04:50:35.322Z,82.80
2018-09-19T04:53:03.537Z,82.90
2018-09-19T04:55:31.771Z,82.90
2018-09-19T04:57:59.963Z,82.80
2018-09-19T05:00:28.148Z,83.20
2018-09-19T05:02:56.434Z,83.30
2018-09-19T05:05:24.630Z,83.50
2018-09-19T05:07:52.808Z,83.60
2018-09-19T05:10:21.055Z,83.70
2018-09-19T05:12:49.258Z,83.80
2018-09-19T05:15:17.446Z,84.00
2018-09-19T05:17:45.641Z,84.30
2018-09-19T05:20:13.846Z,84.40
2018-09-19T05:22:42.920Z,84.60
2018-09-19T05:25:11.101Z,84.70
2018-09-19T05:30:13.834Z,85.00
2018-09-19T05:32:42.062Z,85.30
2018-09-19T05:35:10.356Z,85.80
2018-09-19T05:37:38.556Z,86.10
2018-09-19T05:40:06.826Z,86.20
2018-09-19T05:42:35.046Z,86.50
2018-09-19T05:45:03.287Z,86.60
2018-09-19T05:47:31.598Z,86.70
2018-09-19T05:49:59.883Z,86.80
2018-09-19T05:52:28.070Z,86.90
2018-09-19T05:54:57.724Z,86.60
2018-09-19T05:57:26.362Z,86.20
2018-09-19T05:59:54.555Z,85.30
2018-09-19T06:02:22.775Z,84.70
2018-09-19T06:04:51.002Z,84.40
2018-09-19T06:07:19.828Z,84.40
2018-09-19T06:09:48.469Z,84.50
2018-09-19T06:12:16.724Z,84.50
2018-09-19T06:14:44.970Z,84.40
2018-09-19T06:17:13.345Z,84.30
2018-09-19T06:19:41.601Z,84.10
2018-09-19T06:22:09.917Z,83.80
2018-09-19T06:24:38.469Z,83.60
2018-09-19T06:27:06.765Z,83.20
2018-09-19T06:29:35.021Z,83.00
2018-09-19T06:32:03.131Z,82.80
2018-09-19T06:34:31.327Z,82.90
2018-09-19T06:36:59.604Z,83.10
2018-09-19T06:39:27.923Z,83.10
2018-09-19T06:41:56.245Z,83.00
2018-09-19T06:44:24.482Z,82.00
2018-09-19T06:46:52.826Z,82.00
2018-09-19T06:49:20.988Z,82.40
2018-09-19T06:51:49.566Z,82.80
2018-09-19T06:54:17.766Z,83.10
2018-09-19T06:56:46.009Z,83.40
2018-09-19T06:59:14.192Z,83.80
2018-09-19T07:01:42.472Z,84.10
2018-09-19T07:04:10.755Z,84.10
2018-09-19T07:09:18.927Z,84.30
2018-09-19T07:11:47.317Z,84.50
2018-09-19T07:14:15.597Z,84.40
2018-09-19T07:16:43.890Z,84.10
2018-09-19T07:19:12.089Z,83.90
2018-09-19T07:21:40.314Z,83.70
2018-09-19T07:24:08.553Z,83.70
2018-09-19T07:26:36.807Z,83.70
2018-09-19T07:29:05.105Z,83.60
2018-09-19T07:31:33.444Z,83.40
2018-09-19T07:34:01.744Z,83.30
2018-09-19T07:36:30.003Z,83.10
2018-09-19T07:38:58.217Z,83.00
2018-09-19T07:41:26.485Z,82.80
2018-09-19T07:43:54.674Z,83.40
2018-09-19T07:46:22.962Z,82.60
2018-09-19T07:48:51.153Z,82.20
2018-09-19T07:51:19.357Z,82.10
2018-09-19T07:53:47.574Z,82.00
2018-09-19T07:56:15.782Z,82.00
2018-09-19T07:58:44.085Z,82.00
2018-09-19T08:01:12.411Z,82.00
2018-09-19T08:03:40.532Z,81.60
2018-09-19T08:06:08.746Z,81.10
2018-09-19T08:08:37.047Z,80.40
2018-09-19T08:11:05.285Z,79.80
2018-09-19T08:13:33.551Z,80.30
2018-09-19T08:16:01.836Z,79.10
2018-09-19T08:18:30.050Z,79.00
2018-09-19T08:20:58.297Z,78.70
2018-09-19T08:23:26.574Z,78.20
2018-09-19T08:25:54.766Z,77.60
2018-09-19T08:28:23.029Z,76.80
2018-09-19T08:30:51.336Z,76.10
2018-09-19T08:33:19.619Z,75.40
2018-09-19T08:35:47.794Z,74.80
2018-09-19T08:38:15.996Z,74.70
2018-09-19T08:40:44.201Z,75.00
2018-09-19T08:43:12.439Z,75.40
2018-09-19T08:45:40.686Z,76.00
2018-09-19T08:48:08.995Z,76.30
2018-09-19T08:50:37.205Z,76.50
2018-09-19T08:53:05.409Z,76.60
2018-09-19T08:55:33.618Z,76.50
2018-09-19T08:58:02.014Z,76.50
2018-09-19T09:00:30.251Z,76.30
2018-09-19T09:02:58.507Z,76.20
2018-09-19T09:05:26.875Z,76.10
2018-09-19T09:07:55.155Z,75.80
2018-09-19T09:10:23.366Z,75.30
2018-09-19T09:12:51.627Z,74.90
2018-09-19T09:15:19.857Z,74.50
2018-09-19T09:17:48.319Z,74.20
2018-09-19T09:20:16.667Z,73.70
2018-09-19T09:22:44.894Z,73.20
2018-09-19T09:25:13.119Z,72.80
2018-09-19T09:27:41.396Z,72.50
2018-09-19T09:30:09.633Z,71.90
2018-09-19T09:32:37.906Z,71.50
2018-09-19T09:35:06.195Z,70.90
2018-09-19T09:37:34.647Z,70.30
2018-09-19T09:40:03.020Z,69.20
2018-09-19T09:42:31.834Z,68.30
2018-09-19T09:45:00.110Z,67.60
2018-09-19T09:47:28.900Z,67.00
2018-09-19T09:49:57.305Z,66.70
2018-09-19T09:52:25.541Z,67.30
2018-09-19T09:54:53.783Z,65.80
2018-09-19T09:57:22.099Z,65.20
2018-09-19T09:59:50.416Z,64.60
2018-09-19T10:02:18.976Z,64.20
2018-09-19T10:04:47.778Z,63.60
2018-09-19T10:07:15.996Z,63.10
2018-09-19T10:09:44.394Z,62.60
2018-09-19T10:12:12.962Z,62.10
2018-09-19T10:14:41.306Z,61.20
2018-09-19T10:17:09.598Z,59.80
2018-09-19T10:19:37.960Z,58.70
2018-09-19T10:22:06.450Z,58.30
2018-09-19T10:24:34.693Z,57.70
2018-09-19T10:27:03.069Z,57.20
2018-09-19T10:29:31.329Z,56.50
2018-09-19T10:31:59.535Z,56.00
2018-09-19T10:34:28.025Z,55.10
2018-09-19T10:36:56.407Z,54.70
2018-09-19T10:39:24.643Z,54.10
2018-09-19T10:41:53.062Z,53.60
2018-09-19T10:44:21.264Z,52.90
2018-09-19T10:46:49.530Z,52.20
2018-09-19T10:49:17.786Z,51.80
2018-09-19T10:51:45.985Z,52.00
2018-09-19T10:54:14.232Z,51.60
2018-09-19T10:56:42.490Z,51.70
2018-09-19T10:59:10.714Z,52.00
2018-09-19T11:01:39.023Z,52.10
2018-09-19T11:04:07.258Z,51.90
2018-09-19T11:06:35.492Z,52.10
2018-09-19T11:09:04.965Z,51.80
2018-09-19T11:11:33.514Z,51.80
2018-09-19T11:14:01.758Z,51.60
2018-09-19T11:16:30.003Z,51.50
2018-09-19T11:18:58.223Z,52.00
2018-09-19T11:21:26.418Z,51.50
2018-09-19T11:23:54.626Z,51.40
2018-09-19T11:26:22.903Z,51.30
2018-09-19T11:28:51.188Z,51.00
2018-09-19T11:31:19.586Z,50.50
2018-09-19T11:33:47.912Z,50.20
2018-09-19T11:36:16.186Z,50.60
2018-09-19T11:38:44.429Z,50.70
2018-09-19T11:41:12.662Z,50.40
2018-09-19T11:43:40.915Z,50.00
2018-09-19T11:46:09.468Z,49.60
2018-09-19T11:48:37.857Z,49.30
2018-09-19T11:51:06.287Z,49.20
2018-09-19T11:53:34.750Z,49.60
2018-09-19T11:56:03.138Z,49.10
2018-09-19T11:58:31.467Z,49.30
2018-09-19T12:01:00.230Z,49.40
2018-09-19T12:03:29.191Z,49.20
2018-09-19T12:05:57.486Z,49.00
2018-09-19T12:08:25.726Z,48.70
2018-09-19T12:10:53.967Z,48.30
2018-09-19T12:13:22.297Z,48.20
2018-09-19T12:15:50.590Z,48.30
2018-09-19T12:18:18.833Z,48.30
2018-09-19T12:20:47.109Z,48.20
2018-09-19T12:23:15.396Z,48.10
2018-09-19T12:25:43.766Z,48.00
2018-09-19T12:28:12.015Z,48.10
2018-09-19T12:30:40.236Z,48.20
2018-09-19T12:33:08.520Z,48.00
2018-09-19T12:35:36.734Z,47.90
2018-09-19T12:38:04.993Z,48.20
2018-09-19T12:40:33.625Z,48.60
2018-09-19T12:43:01.866Z,48.80
2018-09-19T12:45:30.099Z,48.90
2018-09-19T12:47:58.353Z,49.00
2018-09-19T12:50:26.686Z,48.80
2018-09-19T12:52:54.930Z,48.80
2018-09-19T12:55:23.149Z,49.00
2018-09-19T12:57:51.401Z,48.90
2018-09-19T13:00:20.072Z,48.80
2018-09-19T13:02:48.422Z,48.90
2018-09-19T13:05:16.689Z,48.90
2018-09-19T13:10:19.562Z,48.10
2018-09-19T13:12:47.799Z,47.70
2018-09-19T13:15:16.046Z,47.10
2018-09-19T13:17:44.300Z,46.60
2018-09-19T13:20:12.567Z,46.40
2018-09-19T13:22:40.785Z,46.20
2018-09-19T13:25:09.127Z,46.00
2018-09-19T13:27:37.381Z,45.90
2018-09-19T13:30:05.644Z,45.90
2018-09-19T13:32:33.910Z,46.10
2018-09-19T13:35:02.226Z,46.40
2018-09-19T13:37:30.471Z,46.40
2018-09-19T13:39:58.748Z,45.80
2018-09-19T13:42:26.997Z,45.30
2018-09-19T13:44:55.214Z,45.40
2018-09-19T13:47:23.466Z,45.30
2018-09-19T13:49:54.848Z,45.50
2018-09-19T13:52:23.103Z,45.30
2018-09-19T13:54:51.375Z,45.10
2018-09-19T13:57:19.910Z,45.00
2018-09-19T13:59:48.185Z,45.10
2018-09-19T14:02:16.465Z,45.10
2018-09-19T14:04:44.692Z,44.90
2018-09-19T14:07:12.914Z,44.90
2018-09-19T14:09:41.206Z,44.50
2018-09-19T14:12:09.640Z,44.10
2018-09-19T14:14:38.175Z,44.10
2018-09-19T14:17:13.255Z,44.20
2018-09-19T14:19:41.505Z,44.40
2018-09-19T14:22:09.731Z,44.70
2018-09-19T14:24:38.015Z,44.90
2018-09-19T14:27:06.382Z,45.00
2018-09-19T14:29:34.677Z,45.10
2018-09-19T14:32:02.960Z,45.10
2018-09-19T14:34:31.260Z,45.00
2018-09-19T14:36:59.499Z,44.40
2018-09-19T14:39:27.703Z,44.40
2018-09-19T14:41:55.950Z,44.30
2018-09-19T14:44:24.192Z,44.20
2018-09-19T14:46:52.422Z,44.30
2018-09-19T14:49:20.716Z,44.60
2018-09-19T14:51:49.793Z,44.60
2018-09-19T14:54:18.462Z,44.70
2018-09-19T14:56:46.658Z,44.70
2018-09-19T14:59:14.883Z,44.70
2018-09-19T15:01:43.098Z,44.70
2018-09-19T15:04:11.295Z,44.70
2018-09-19T15:06:39.511Z,44.90
2018-09-19T15:09:09.314Z,45.00
2018-09-19T15:11:37.554Z,45.20
2018-09-19T15:14:05.842Z,45.30
2018-09-19T15:16:34.046Z,45.30
2018-09-19T15:19:02.280Z,45.00
2018-09-19T15:21:30.496Z,44.80
2018-09-19T15:23:58.679Z,44.80
2018-09-19T15:26:26.925Z,44.80
2018-09-19T15:28:55.160Z,45.00
2018-09-19T15:31:23.389Z,45.00
2018-09-19T15:33:51.610Z,45.10
2018-09-19T15:36:19.835Z,45.10
2018-09-19T15:38:48.067Z,45.10
2018-09-19T15:41:16.270Z,45.10
2018-09-19T15:43:44.496Z,44.70
2018-09-19T15:46:12.682Z,44.40
2018-09-19T15:48:40.899Z,44.40
2018-09-19T15:51:09.093Z,44.50
2018-09-19T15:53:37.340Z,44.40
2018-09-19T15:56:05.536Z,44.30
2018-09-19T15:58:33.743Z,44.50
2018-09-19T16:01:01.993Z,44.80
2018-09-19T16:03:30.225Z,44.50
2018-09-19T16:05:58.675Z,44.50
2018-09-19T16:08:26.862Z,44.70
2018-09-19T16:10:55.091Z,44.90
2018-09-19T16:13:23.350Z,45.10
2018-09-19T16:15:51.555Z,45.30
2018-09-19T16:18:19.818Z,45.40
2018-09-19T16:20:48.220Z,45.50
2018-09-19T16:23:16.450Z,45.60
2018-09-19T16:25:44.628Z,45.60
2018-09-19T16:28:12.889Z,45.50
2018-09-19T16:30:41.134Z,45.50
2018-09-19T16:33:09.398Z,45.70
2018-09-19T16:35:37.626Z,45.90
2018-09-19T16:38:06.072Z,46.40
2018-09-19T16:40:34.204Z,46.60
2018-09-19T16:43:02.459Z,47.20
2018-09-19T16:45:30.807Z,46.70
2018-09-19T16:47:58.960Z,46.60
2018-09-19T16:50:27.177Z,46.70
2018-09-19T16:52:55.756Z,46.90
2018-09-19T16:55:23.997Z,47.00
2018-09-19T16:57:52.285Z,47.20
2018-09-19T17:00:20.492Z,47.30
2018-09-19T17:02:48.766Z,47.50
2018-09-19T17:05:16.986Z,47.60
2018-09-19T17:07:45.233Z,47.40
2018-09-19T17:10:13.551Z,47.70
2018-09-19T17:12:41.765Z,47.80
2018-09-19T17:15:10.066Z,47.90
2018-09-19T17:17:38.286Z,48.00
2018-09-19T17:20:06.787Z,48.10
2018-09-19T17:22:35.037Z,48.20
2018-09-19T17:25:03.320Z,48.30
2018-09-19T17:27:31.540Z,48.50
2018-09-19T17:29:59.783Z,48.60
2018-09-19T17:32:28.027Z,48.90
2018-09-19T17:34:56.308Z,49.00
2018-09-19T17:37:24.754Z,49.10
2018-09-19T17:39:53.209Z,49.30
2018-09-19T17:42:21.426Z,49.40
2018-09-19T17:44:49.624Z,49.60
2018-09-19T17:47:17.840Z,49.80
2018-09-19T17:49:46.083Z,49.90
2018-09-19T17:52:14.317Z,50.00
2018-09-19T17:54:42.568Z,50.20
2018-09-19T17:57:10.918Z,50.40
2018-09-19T17:59:39.210Z,50.60
2018-09-19T18:02:07.454Z,50.90
2018-09-19T18:04:35.672Z,51.00
2018-09-19T18:07:03.915Z,51.20
2018-09-19T18:09:32.102Z,51.40
2018-09-19T18:12:00.459Z,51.60
2018-09-19T18:14:29.160Z,51.70
2018-09-19T18:16:57.374Z,51.90
2018-09-19T18:19:25.609Z,52.00
2018-09-19T18:21:53.818Z,52.30
2018-09-19T18:24:22.073Z,52.40
2018-09-19T18:26:50.342Z,52.50
2018-09-19T18:29:18.586Z,52.50
2018-09-19T18:31:46.801Z,52.60
2018-09-19T18:34:15.038Z,52.80
2018-09-19T18:36:43.242Z,52.80
2018-09-19T18:39:11.450Z,53.10
2018-09-19T18:41:39.734Z,53.20
2018-09-19T18:44:08.610Z,53.30
2018-09-19T18:46:36.928Z,53.30
2018-09-19T18:49:05.175Z,53.40
2018-09-19T18:51:33.374Z,53.70
2018-09-19T18:54:01.623Z,53.80
2018-09-19T18:56:29.818Z,54.00
2018-09-19T18:58:58.075Z,53.70
2018-09-19T19:01:26.292Z,54.10
2018-09-19T19:03:54.569Z,54.00
2018-09-19T19:06:22.765Z,54.10
2018-09-19T19:08:50.987Z,54.20
2018-09-19T19:11:19.235Z,54.30
2018-09-19T19:13:47.467Z,54.30
2018-09-19T19:16:15.786Z,54.40
2018-09-19T19:18:44.136Z,54.40
2018-09-19T19:21:12.436Z,54.50
2018-09-19T19:23:40.699Z,54.50
2018-09-19T19:26:09.174Z,54.50
2018-09-19T19:28:37.370Z,54.60
2018-09-19T19:31:05.634Z,54.60
2018-09-19T19:33:33.865Z,54.70
2018-09-19T19:36:02.111Z,54.70
2018-09-19T19:38:30.592Z,54.70
2018-09-19T19:40:58.838Z,54.70
2018-09-19T19:43:27.091Z,54.40
2018-09-19T19:45:55.333Z,54.70
2018-09-19T19:48:23.546Z,54.70
2018-09-19T19:50:51.797Z,54.70
2018-09-19T19:53:20.087Z,54.80
2018-09-19T19:55:48.336Z,54.80
2018-09-19T19:58:16.591Z,54.90
2018-09-19T20:00:44.880Z,55.00
2018-09-19T20:03:13.139Z,55.20
2018-09-19T20:05:41.399Z,55.40
2018-09-19T20:08:09.734Z,55.40
2018-09-19T20:10:38.016Z,55.60
2018-09-19T20:13:06.903Z,55.60
2018-09-19T20:15:35.243Z,55.80
2018-09-19T20:18:03.738Z,55.90
2018-09-19T20:20:31.970Z,56.00
2018-09-19T20:23:00.337Z,56.20
2018-09-19T20:25:28.575Z,56.20
2018-09-19T20:27:56.771Z,56.30
2018-09-19T20:30:24.975Z,56.40
2018-09-19T20:32:53.230Z,56.40
2018-09-19T20:35:21.611Z,56.40
2018-09-19T20:37:49.886Z,56.50
2018-09-19T20:40:18.142Z,56.60
2018-09-19T20:42:46.337Z,56.70
2018-09-19T20:45:14.582Z,56.70
2018-09-19T20:47:42.874Z,57.00
2018-09-19T20:50:11.094Z,57.20
2018-09-19T20:52:39.441Z,57.30
2018-09-19T20:55:07.678Z,57.20
2018-09-19T20:57:35.882Z,57.50
2018-09-19T21:00:04.206Z,57.20
2018-09-19T21:02:32.435Z,57.20
2018-09-19T21:05:00.715Z,57.30
2018-09-19T21:07:28.970Z,57.50
2018-09-19T21:09:57.226Z,57.50
2018-09-19T21:12:32.089Z,57.60
2018-09-19T21:15:00.347Z,58.40
2018-09-19T21:17:28.622Z,57.90
2018-09-19T21:19:56.849Z,58.10
2018-09-19T21:22:25.251Z,58.20
2018-09-19T21:24:53.350Z,58.20
2018-09-19T21:27:21.642Z,58.30
2018-09-19T21:29:49.874Z,58.50
2018-09-19T21:32:18.743Z,58.50
2018-09-19T21:34:46.950Z,58.50
2018-09-19T21:37:15.168Z,58.70
2018-09-19T21:39:43.478Z,58.70
2018-09-19T21:42:11.780Z,59.00
2018-09-19T21:44:39.997Z,59.20
2018-09-19T21:47:08.313Z,59.30
2018-09-19T21:49:36.565Z,59.30
2018-09-19T21:52:04.853Z,59.40
2018-09-19T21:54:33.145Z,59.60
2018-09-19T21:57:01.421Z,59.70
2018-09-19T21:59:29.691Z,59.50
2018-09-19T22:01:57.904Z,59.80
2018-09-19T22:04:26.181Z,59.90
2018-09-19T22:06:54.507Z,60.20
2018-09-19T22:09:22.691Z,60.20
2018-09-19T22:11:50.940Z,60.30
2018-09-19T22:14:19.171Z,60.40
2018-09-19T22:16:47.458Z,60.60
2018-09-19T22:19:15.735Z,61.00
2018-09-19T22:21:43.918Z,61.10
2018-09-19T22:24:12.115Z,61.20
2018-09-19T22:26:40.336Z,61.30
2018-09-19T22:29:08.591Z,61.70
2018-09-19T22:31:36.842Z,61.80
2018-09-19T22:34:05.099Z,62.10
2018-09-19T22:36:33.501Z,62.20
2018-09-19T22:39:01.772Z,62.30
2018-09-19T22:41:30.123Z,62.40
2018-09-19T22:43:58.355Z,62.60
2018-09-19T22:46:26.605Z,62.80
2018-09-19T22:48:54.918Z,63.00
2018-09-19T22:51:23.158Z,63.20
2018-09-19T22:53:51.409Z,63.40
2018-09-19T22:56:19.703Z,63.50
2018-09-19T22:58:47.890Z,63.60
2018-09-19T23:01:16.097Z,63.80
2018-09-19T23:03:44.328Z,64.00
2018-09-19T23:06:12.534Z,64.20
2018-09-19T23:08:40.752Z,64.30
2018-09-19T23:11:08.952Z,64.60
2018-09-19T23:13:37.175Z,64.70
2018-09-19T23:16:05.430Z,64.90
2018-09-19T23:18:38.493Z,65.10
2018-09-19T23:21:06.684Z,65.30
2018-09-19T23:23:34.958Z,65.40
2018-09-19T23:26:03.170Z,65.70
2018-09-19T23:28:31.383Z,65.60
2018-09-19T23:30:59.603Z,65.70
2018-09-19T23:33:27.846Z,65.80
2018-09-19T23:35:56.098Z,65.90
2018-09-19T23:38:24.386Z,66.00
2018-09-19T23:40:52.598Z,66.00
2018-09-19T23:43:20.862Z,66.20
2018-09-19T23:45:49.182Z,66.30
2018-09-19T23:48:17.418Z,66.30
2018-09-19T23:50:45.695Z,66.30
2018-09-19T23:53:13.937Z,66.30
2018-09-19T23:55:42.179Z,66.70
2018-09-19T23:58:10.435Z,66.80
